sensor_id;sensor_type;location;lat;lon;timestamp;temperature;humidity
76967;DHT22;65904;52.278;20.972;2023-06-26T00:01:16;17.30;99.90
76967;DHT22;65904;52.278;20.972;2023-06-26T00:04:05;17.20;99.90
76967;DHT22;65904;52.278;20.972;2023-06-26T00:06:51;17.20;99.90
76967;DHT22;65904;52.278;20.972;2023-06-26T00:09:38;17.20;99.90
76967;DHT22;65904;52.278;20.972;2023-06-26T00:12:25;17.10;99.90
76967;DHT22;65904;52.278;20.972;2023-06-26T00:15:12;17.00;99.90
76967;DHT22;65904;52.278;20.972;2023-06-26T00:17:58;16.80;99.90
76967;DHT22;65904;52.278;20.972;2023-06-26T00:20:44;16.90;99.90
76967;DHT22;65904;52.278;20.972;2023-06-26T00:23:30;16.80;99.90
76967;DHT22;65904;52.278;20.972;2023-06-26T00:26:21;16.70;99.90
76967;DHT22;65904;52.278;20.972;2023-06-26T00:29:10;16.70;99.90
76967;DHT22;65904;52.278;20.972;2023-06-26T00:31:56;16.60;99.90
76967;DHT22;65904;52.278;20.972;2023-06-26T00:34:42;16.50;99.90
76967;DHT22;65904;52.278;20.972;2023-06-26T00:37:28;16.60;99.90
76967;DHT22;65904;52.278;20.972;2023-06-26T00:40:14;16.60;99.90
76967;DHT22;65904;52.278;20.972;2023-06-26T00:43:02;16.60;99.90
76967;DHT22;65904;52.278;20.972;2023-06-26T00:45:49;16.60;99.90
76967;DHT22;65904;52.278;20.972;2023-06-26T00:48:36;16.60;99.90
76967;DHT22;65904;52.278;20.972;2023-06-26T00:51:22;16.60;99.90
76967;DHT22;65904;52.278;20.972;2023-06-26T00:54:09;16.70;99.90
76967;DHT22;65904;52.278;20.972;2023-06-26T00:56:56;16.70;99.90
76967;DHT22;65904;52.278;20.972;2023-06-26T00:59:42;16.70;99.90
76967;DHT22;65904;52.278;20.972;2023-06-26T01:02:29;16.60;99.90
76967;DHT22;65904;52.278;20.972;2023-06-26T01:05:19;16.70;99.90
76967;DHT22;65904;52.278;20.972;2023-06-26T01:08:08;16.60;99.90
76967;DHT22;65904;52.278;20.972;2023-06-26T01:10:54;16.50;99.90
76967;DHT22;65904;52.278;20.972;2023-06-26T01:13:41;16.50;99.90
76967;DHT22;65904;52.278;20.972;2023-06-26T01:16:29;16.50;99.90
76967;DHT22;65904;52.278;20.972;2023-06-26T01:19:19;16.50;99.90
76967;DHT22;65904;52.278;20.972;2023-06-26T01:22:15;16.50;99.90
76967;DHT22;65904;52.278;20.972;2023-06-26T01:25:10;16.40;99.90
76967;DHT22;65904;52.278;20.972;2023-06-26T01:28:00;16.40;99.90
76967;DHT22;65904;52.278;20.972;2023-06-26T01:30:49;16.40;99.90
76967;DHT22;65904;52.278;20.972;2023-06-26T01:33:37;16.30;99.90
76967;DHT22;65904;52.278;20.972;2023-06-26T01:36:23;16.30;99.90
76967;DHT22;65904;52.278;20.972;2023-06-26T01:39:09;16.40;99.90
76967;DHT22;65904;52.278;20.972;2023-06-26T01:41:56;16.30;99.90
76967;DHT22;65904;52.278;20.972;2023-06-26T01:44:45;16.30;99.90
76967;DHT22;65904;52.278;20.972;2023-06-26T01:47:33;16.30;99.90
76967;DHT22;65904;52.278;20.972;2023-06-26T01:50:24;16.30;99.90
76967;DHT22;65904;52.278;20.972;2023-06-26T01:53:11;16.20;99.90
76967;DHT22;65904;52.278;20.972;2023-06-26T01:56:02;16.20;99.90
76967;DHT22;65904;52.278;20.972;2023-06-26T01:58:50;16.20;99.90
76967;DHT22;65904;52.278;20.972;2023-06-26T02:01:41;16.30;99.90
76967;DHT22;65904;52.278;20.972;2023-06-26T02:04:27;16.30;99.90
76967;DHT22;65904;52.278;20.972;2023-06-26T02:07:13;16.30;99.90
76967;DHT22;65904;52.278;20.972;2023-06-26T02:09:59;16.30;99.90
76967;DHT22;65904;52.278;20.972;2023-06-26T02:12:45;16.30;99.90
76967;DHT22;65904;52.278;20.972;2023-06-26T02:15:32;16.20;99.90
76967;DHT22;65904;52.278;20.972;2023-06-26T02:18:20;16.10;99.90
76967;DHT22;65904;52.278;20.972;2023-06-26T02:21:08;16.20;99.90
76967;DHT22;65904;52.278;20.972;2023-06-26T02:23:55;16.20;99.90
76967;DHT22;65904;52.278;20.972;2023-06-26T02:26:41;16.30;99.90
76967;DHT22;65904;52.278;20.972;2023-06-26T02:29:29;16.40;99.90
76967;DHT22;65904;52.278;20.972;2023-06-26T02:32:15;16.40;99.90
76967;DHT22;65904;52.278;20.972;2023-06-26T02:35:03;16.30;99.90
76967;DHT22;65904;52.278;20.972;2023-06-26T02:37:49;16.30;99.90
76967;DHT22;65904;52.278;20.972;2023-06-26T02:40:36;16.20;99.90
76967;DHT22;65904;52.278;20.972;2023-06-26T02:43:22;16.30;99.90
76967;DHT22;65904;52.278;20.972;2023-06-26T02:46:09;16.20;99.90
76967;DHT22;65904;52.278;20.972;2023-06-26T02:48:54;16.20;99.90
76967;DHT22;65904;52.278;20.972;2023-06-26T02:51:43;16.20;99.90
76967;DHT22;65904;52.278;20.972;2023-06-26T02:54:40;16.20;99.90
76967;DHT22;65904;52.278;20.972;2023-06-26T02:57:27;16.00;99.90
76967;DHT22;65904;52.278;20.972;2023-06-26T03:00:14;16.00;99.90
76967;DHT22;65904;52.278;20.972;2023-06-26T03:03:06;16.10;99.90
76967;DHT22;65904;52.278;20.972;2023-06-26T03:05:52;16.10;99.90
76967;DHT22;65904;52.278;20.972;2023-06-26T03:08:40;16.10;99.90
76967;DHT22;65904;52.278;20.972;2023-06-26T03:11:26;16.10;99.90
76967;DHT22;65904;52.278;20.972;2023-06-26T03:14:13;16.20;99.90
76967;DHT22;65904;52.278;20.972;2023-06-26T03:17:00;16.20;99.90
76967;DHT22;65904;52.278;20.972;2023-06-26T03:19:50;16.30;99.90
76967;DHT22;65904;52.278;20.972;2023-06-26T03:22:48;16.20;99.90
76967;DHT22;65904;52.278;20.972;2023-06-26T03:25:37;16.30;99.90
76967;DHT22;65904;52.278;20.972;2023-06-26T03:28:41;16.40;99.90
76967;DHT22;65904;52.278;20.972;2023-06-26T03:31:28;16.50;99.90
76967;DHT22;65904;52.278;20.972;2023-06-26T03:34:14;16.60;99.90
76967;DHT22;65904;52.278;20.972;2023-06-26T03:37:00;16.60;99.90
76967;DHT22;65904;52.278;20.972;2023-06-26T03:39:47;16.60;99.90
76967;DHT22;65904;52.278;20.972;2023-06-26T03:42:35;16.70;99.90
76967;DHT22;65904;52.278;20.972;2023-06-26T03:45:20;16.80;99.90
76967;DHT22;65904;52.278;20.972;2023-06-26T03:48:07;16.90;99.90
76967;DHT22;65904;52.278;20.972;2023-06-26T03:50:54;16.90;99.90
76967;DHT22;65904;52.278;20.972;2023-06-26T03:53:41;17.10;99.90
76967;DHT22;65904;52.278;20.972;2023-06-26T03:56:27;17.30;99.90
76967;DHT22;65904;52.278;20.972;2023-06-26T03:59:15;17.40;99.90
76967;DHT22;65904;52.278;20.972;2023-06-26T04:02:01;17.40;99.90
76967;DHT22;65904;52.278;20.972;2023-06-26T04:04:49;17.50;99.90
76967;DHT22;65904;52.278;20.972;2023-06-26T04:07:37;17.60;99.90
76967;DHT22;65904;52.278;20.972;2023-06-26T04:10:24;17.70;99.90
76967;DHT22;65904;52.278;20.972;2023-06-26T04:13:10;17.70;99.90
76967;DHT22;65904;52.278;20.972;2023-06-26T04:15:58;17.70;99.90
76967;DHT22;65904;52.278;20.972;2023-06-26T04:18:44;17.70;99.90
76967;DHT22;65904;52.278;20.972;2023-06-26T04:21:30;17.80;99.90
76967;DHT22;65904;52.278;20.972;2023-06-26T04:24:16;17.80;99.90
76967;DHT22;65904;52.278;20.972;2023-06-26T04:27:04;17.80;99.90
76967;DHT22;65904;52.278;20.972;2023-06-26T04:29:50;17.80;99.90
76967;DHT22;65904;52.278;20.972;2023-06-26T04:32:37;17.80;99.90
76967;DHT22;65904;52.278;20.972;2023-06-26T04:35:23;17.90;99.90
76967;DHT22;65904;52.278;20.972;2023-06-26T04:38:09;18.00;99.90
76967;DHT22;65904;52.278;20.972;2023-06-26T04:40:55;18.10;99.90
76967;DHT22;65904;52.278;20.972;2023-06-26T04:43:42;18.20;99.90
76967;DHT22;65904;52.278;20.972;2023-06-26T04:46:27;18.20;99.90
76967;DHT22;65904;52.278;20.972;2023-06-26T04:49:15;18.30;99.90
76967;DHT22;65904;52.278;20.972;2023-06-26T04:52:02;18.30;99.90
76967;DHT22;65904;52.278;20.972;2023-06-26T04:54:49;18.30;99.90
76967;DHT22;65904;52.278;20.972;2023-06-26T04:57:35;18.40;99.90
76967;DHT22;65904;52.278;20.972;2023-06-26T05:00:21;18.40;99.90
76967;DHT22;65904;52.278;20.972;2023-06-26T05:03:09;18.50;99.90
76967;DHT22;65904;52.278;20.972;2023-06-26T05:05:57;18.60;99.90
76967;DHT22;65904;52.278;20.972;2023-06-26T05:08:43;18.60;99.90
76967;DHT22;65904;52.278;20.972;2023-06-26T05:11:29;18.70;99.90
76967;DHT22;65904;52.278;20.972;2023-06-26T05:14:15;18.80;99.90
76967;DHT22;65904;52.278;20.972;2023-06-26T05:17:01;18.80;99.90
76967;DHT22;65904;52.278;20.972;2023-06-26T05:19:47;19.00;99.90
76967;DHT22;65904;52.278;20.972;2023-06-26T05:22:37;19.00;99.90
76967;DHT22;65904;52.278;20.972;2023-06-26T05:25:24;19.00;99.90
76967;DHT22;65904;52.278;20.972;2023-06-26T05:28:12;19.20;99.90
76967;DHT22;65904;52.278;20.972;2023-06-26T05:31:00;19.20;99.90
76967;DHT22;65904;52.278;20.972;2023-06-26T05:33:49;19.30;99.90
76967;DHT22;65904;52.278;20.972;2023-06-26T05:36:36;19.30;99.90
76967;DHT22;65904;52.278;20.972;2023-06-26T05:39:24;19.40;99.90
76967;DHT22;65904;52.278;20.972;2023-06-26T05:42:12;19.60;99.90
76967;DHT22;65904;52.278;20.972;2023-06-26T05:44:58;19.70;99.90
76967;DHT22;65904;52.278;20.972;2023-06-26T05:47:44;19.80;99.90
76967;DHT22;65904;52.278;20.972;2023-06-26T05:50:31;20.00;99.90
76967;DHT22;65904;52.278;20.972;2023-06-26T05:53:18;20.10;99.90
76967;DHT22;65904;52.278;20.972;2023-06-26T05:56:06;20.20;99.90
76967;DHT22;65904;52.278;20.972;2023-06-26T05:58:52;20.30;99.90
76967;DHT22;65904;52.278;20.972;2023-06-26T06:01:38;20.40;99.90
76967;DHT22;65904;52.278;20.972;2023-06-26T06:04:24;20.50;99.90
76967;DHT22;65904;52.278;20.972;2023-06-26T06:07:11;20.70;99.90
76967;DHT22;65904;52.278;20.972;2023-06-26T06:09:57;20.80;99.90
76967;DHT22;65904;52.278;20.972;2023-06-26T06:12:45;20.80;99.90
76967;DHT22;65904;52.278;20.972;2023-06-26T06:15:31;21.00;99.90
76967;DHT22;65904;52.278;20.972;2023-06-26T06:18:17;21.10;99.90
76967;DHT22;65904;52.278;20.972;2023-06-26T06:21:03;21.20;99.90
76967;DHT22;65904;52.278;20.972;2023-06-26T06:23:50;21.30;99.90
76967;DHT22;65904;52.278;20.972;2023-06-26T06:26:36;21.40;99.90
76967;DHT22;65904;52.278;20.972;2023-06-26T06:29:23;21.50;99.90
76967;DHT22;65904;52.278;20.972;2023-06-26T06:32:09;21.60;99.90
76967;DHT22;65904;52.278;20.972;2023-06-26T06:34:56;21.70;99.90
76967;DHT22;65904;52.278;20.972;2023-06-26T06:37:43;21.80;99.90
76967;DHT22;65904;52.278;20.972;2023-06-26T06:40:29;21.90;99.90
76967;DHT22;65904;52.278;20.972;2023-06-26T06:43:15;22.00;99.90
76967;DHT22;65904;52.278;20.972;2023-06-26T06:46:06;22.20;99.90
76967;DHT22;65904;52.278;20.972;2023-06-26T06:48:52;22.30;99.90
76967;DHT22;65904;52.278;20.972;2023-06-26T06:51:38;22.30;99.90
76967;DHT22;65904;52.278;20.972;2023-06-26T06:54:25;22.40;99.90
76967;DHT22;65904;52.278;20.972;2023-06-26T06:57:11;22.50;99.90
76967;DHT22;65904;52.278;20.972;2023-06-26T06:59:57;22.60;99.90
76967;DHT22;65904;52.278;20.972;2023-06-26T07:02:45;22.70;99.90
76967;DHT22;65904;52.278;20.972;2023-06-26T07:05:32;22.80;99.90
76967;DHT22;65904;52.278;20.972;2023-06-26T07:08:18;22.90;99.90
76967;DHT22;65904;52.278;20.972;2023-06-26T07:11:04;23.00;99.90
76967;DHT22;65904;52.278;20.972;2023-06-26T07:13:50;23.10;99.90
76967;DHT22;65904;52.278;20.972;2023-06-26T07:16:36;23.00;99.90
76967;DHT22;65904;52.278;20.972;2023-06-26T07:19:23;23.20;99.90
76967;DHT22;65904;52.278;20.972;2023-06-26T07:22:09;23.20;99.90
76967;DHT22;65904;52.278;20.972;2023-06-26T07:24:56;23.20;99.90
76967;DHT22;65904;52.278;20.972;2023-06-26T07:27:42;23.30;99.90
76967;DHT22;65904;52.278;20.972;2023-06-26T07:30:29;23.50;99.90
76967;DHT22;65904;52.278;20.972;2023-06-26T07:33:15;23.60;99.90
76967;DHT22;65904;52.278;20.972;2023-06-26T07:36:03;23.70;99.90
76967;DHT22;65904;52.278;20.972;2023-06-26T07:38:49;23.80;99.90
76967;DHT22;65904;52.278;20.972;2023-06-26T07:41:36;23.70;99.90
76967;DHT22;65904;52.278;20.972;2023-06-26T07:44:22;23.90;99.90
76967;DHT22;65904;52.278;20.972;2023-06-26T07:47:08;24.00;99.90
76967;DHT22;65904;52.278;20.972;2023-06-26T07:49:54;24.10;99.90
76967;DHT22;65904;52.278;20.972;2023-06-26T07:52:42;24.20;99.90
76967;DHT22;65904;52.278;20.972;2023-06-26T07:55:28;24.40;99.90
76967;DHT22;65904;52.278;20.972;2023-06-26T07:58:14;24.60;99.90
76967;DHT22;65904;52.278;20.972;2023-06-26T08:01:00;24.90;99.90
76967;DHT22;65904;52.278;20.972;2023-06-26T08:03:46;24.70;99.90
76967;DHT22;65904;52.278;20.972;2023-06-26T08:06:32;24.60;99.90
76967;DHT22;65904;52.278;20.972;2023-06-26T08:09:23;24.30;99.90
76967;DHT22;65904;52.278;20.972;2023-06-26T08:12:09;24.20;99.90
76967;DHT22;65904;52.278;20.972;2023-06-26T08:14:55;24.30;99.90
76967;DHT22;65904;52.278;20.972;2023-06-26T08:17:41;24.60;99.90
76967;DHT22;65904;52.278;20.972;2023-06-26T08:20:28;24.70;99.90
76967;DHT22;65904;52.278;20.972;2023-06-26T08:23:14;24.60;99.90
76967;DHT22;65904;52.278;20.972;2023-06-26T08:26:02;24.60;99.90
76967;DHT22;65904;52.278;20.972;2023-06-26T08:28:48;24.60;99.90
76967;DHT22;65904;52.278;20.972;2023-06-26T08:31:34;24.50;99.90
76967;DHT22;65904;52.278;20.972;2023-06-26T08:34:20;24.60;99.90
76967;DHT22;65904;52.278;20.972;2023-06-26T08:37:06;24.80;99.90
76967;DHT22;65904;52.278;20.972;2023-06-26T08:39:53;25.00;99.90
76967;DHT22;65904;52.278;20.972;2023-06-26T08:42:41;25.20;99.90
76967;DHT22;65904;52.278;20.972;2023-06-26T08:45:27;25.20;99.90
76967;DHT22;65904;52.278;20.972;2023-06-26T08:48:14;25.50;99.90
76967;DHT22;65904;52.278;20.972;2023-06-26T08:51:09;25.90;99.90
76967;DHT22;65904;52.278;20.972;2023-06-26T08:53:58;26.10;97.50
76967;DHT22;65904;52.278;20.972;2023-06-26T08:56:46;26.30;96.70
76967;DHT22;65904;52.278;20.972;2023-06-26T08:59:36;26.30;96.60
76967;DHT22;65904;52.278;20.972;2023-06-26T09:02:22;26.30;97.10
76967;DHT22;65904;52.278;20.972;2023-06-26T09:05:09;26.50;96.50
76967;DHT22;65904;52.278;20.972;2023-06-26T09:07:55;26.50;96.90
76967;DHT22;65904;52.278;20.972;2023-06-26T09:10:41;26.60;96.10
76967;DHT22;65904;52.278;20.972;2023-06-26T09:13:29;26.30;95.90
76967;DHT22;65904;52.278;20.972;2023-06-26T09:16:17;26.20;96.10
76967;DHT22;65904;52.278;20.972;2023-06-26T09:19:03;26.50;94.20
76967;DHT22;65904;52.278;20.972;2023-06-26T09:21:50;26.70;92.80
76967;DHT22;65904;52.278;20.972;2023-06-26T09:24:37;27.00;93.30
76967;DHT22;65904;52.278;20.972;2023-06-26T09:27:23;27.40;93.10
76967;DHT22;65904;52.278;20.972;2023-06-26T09:30:10;27.60;92.40
76967;DHT22;65904;52.278;20.972;2023-06-26T09:32:58;28.10;92.10
76967;DHT22;65904;52.278;20.972;2023-06-26T09:35:58;28.50;90.80
76967;DHT22;65904;52.278;20.972;2023-06-26T09:38:45;28.60;89.10
76967;DHT22;65904;52.278;20.972;2023-06-26T09:41:31;28.00;89.90
76967;DHT22;65904;52.278;20.972;2023-06-26T09:44:18;27.70;89.90
76967;DHT22;65904;52.278;20.972;2023-06-26T09:47:04;27.40;90.00
76967;DHT22;65904;52.278;20.972;2023-06-26T09:49:52;27.60;89.60
76967;DHT22;65904;52.278;20.972;2023-06-26T09:52:41;27.80;88.80
76967;DHT22;65904;52.278;20.972;2023-06-26T09:55:27;28.40;87.50
76967;DHT22;65904;52.278;20.972;2023-06-26T09:58:13;28.30;87.70
76967;DHT22;65904;52.278;20.972;2023-06-26T10:01:00;28.30;86.40
76967;DHT22;65904;52.278;20.972;2023-06-26T10:03:47;28.30;86.60
76967;DHT22;65904;52.278;20.972;2023-06-26T10:06:36;28.50;85.80
76967;DHT22;65904;52.278;20.972;2023-06-26T10:09:23;28.50;84.00
76967;DHT22;65904;52.278;20.972;2023-06-26T10:12:17;28.80;81.10
76967;DHT22;65904;52.278;20.972;2023-06-26T10:15:04;29.10;81.80
76967;DHT22;65904;52.278;20.972;2023-06-26T10:17:51;29.20;78.30
76967;DHT22;65904;52.278;20.972;2023-06-26T10:20:40;29.00;74.50
76967;DHT22;65904;52.278;20.972;2023-06-26T10:23:30;29.30;75.30
76967;DHT22;65904;52.278;20.972;2023-06-26T10:26:19;29.60;75.20
76967;DHT22;65904;52.278;20.972;2023-06-26T10:29:07;30.00;71.00
76967;DHT22;65904;52.278;20.972;2023-06-26T10:31:56;30.20;69.40
76967;DHT22;65904;52.278;20.972;2023-06-26T10:34:43;30.20;67.60
76967;DHT22;65904;52.278;20.972;2023-06-26T10:37:41;30.40;65.70
76967;DHT22;65904;52.278;20.972;2023-06-26T10:40:40;30.50;66.70
76967;DHT22;65904;52.278;20.972;2023-06-26T10:43:30;30.80;66.00
76967;DHT22;65904;52.278;20.972;2023-06-26T10:46:18;30.60;64.00
76967;DHT22;65904;52.278;20.972;2023-06-26T10:49:05;30.30;65.90
76967;DHT22;65904;52.278;20.972;2023-06-26T10:51:52;30.20;67.40
76967;DHT22;65904;52.278;20.972;2023-06-26T10:54:39;30.00;66.90
76967;DHT22;65904;52.278;20.972;2023-06-26T10:57:27;29.20;66.50
76967;DHT22;65904;52.278;20.972;2023-06-26T11:00:15;28.70;69.60
76967;DHT22;65904;52.278;20.972;2023-06-26T11:03:22;28.70;70.50
76967;DHT22;65904;52.278;20.972;2023-06-26T11:06:10;29.00;70.60
76967;DHT22;65904;52.278;20.972;2023-06-26T11:09:01;29.30;69.90
76967;DHT22;65904;52.278;20.972;2023-06-26T11:11:59;29.60;66.20
76967;DHT22;65904;52.278;20.972;2023-06-26T11:14:51;29.80;64.30
76967;DHT22;65904;52.278;20.972;2023-06-26T11:17:38;30.40;62.10
76967;DHT22;65904;52.278;20.972;2023-06-26T11:20:24;30.70;62.50
76967;DHT22;65904;52.278;20.972;2023-06-26T11:23:10;31.20;62.20
76967;DHT22;65904;52.278;20.972;2023-06-26T11:25:57;31.30;60.10
76967;DHT22;65904;52.278;20.972;2023-06-26T11:28:47;31.10;60.80
76967;DHT22;65904;52.278;20.972;2023-06-26T11:31:36;31.60;61.20
76967;DHT22;65904;52.278;20.972;2023-06-26T11:34:23;32.30;59.10
76967;DHT22;65904;52.278;20.972;2023-06-26T11:37:11;32.60;58.50
76967;DHT22;65904;52.278;20.972;2023-06-26T11:39:57;33.30;57.30
76967;DHT22;65904;52.278;20.972;2023-06-26T11:42:43;33.00;53.70
76967;DHT22;65904;52.278;20.972;2023-06-26T11:45:30;33.20;53.20
76967;DHT22;65904;52.278;20.972;2023-06-26T11:48:18;33.60;52.10
76967;DHT22;65904;52.278;20.972;2023-06-26T11:51:04;34.10;49.00
76967;DHT22;65904;52.278;20.972;2023-06-26T11:53:51;34.10;49.00
76967;DHT22;65904;52.278;20.972;2023-06-26T11:56:38;32.50;50.00
76967;DHT22;65904;52.278;20.972;2023-06-26T11:59:24;32.10;51.10
76967;DHT22;65904;52.278;20.972;2023-06-26T12:02:13;32.10;52.50
76967;DHT22;65904;52.278;20.972;2023-06-26T12:05:02;33.10;52.60
76967;DHT22;65904;52.278;20.972;2023-06-26T12:07:49;33.30;51.00
76967;DHT22;65904;52.278;20.972;2023-06-26T12:10:36;32.60;51.40
76967;DHT22;65904;52.278;20.972;2023-06-26T12:13:22;33.20;51.10
76967;DHT22;65904;52.278;20.972;2023-06-26T12:16:09;33.00;51.40
76967;DHT22;65904;52.278;20.972;2023-06-26T12:18:58;32.80;51.30
76967;DHT22;65904;52.278;20.972;2023-06-26T12:21:47;31.90;52.20
76967;DHT22;65904;52.278;20.972;2023-06-26T12:24:37;32.40;53.40
76967;DHT22;65904;52.278;20.972;2023-06-26T12:27:25;34.00;51.80
76967;DHT22;65904;52.278;20.972;2023-06-26T12:30:12;34.20;49.90
76967;DHT22;65904;52.278;20.972;2023-06-26T12:32:59;35.40;49.60
76967;DHT22;65904;52.278;20.972;2023-06-26T12:35:45;37.90;47.60
76967;DHT22;65904;52.278;20.972;2023-06-26T12:38:35;36.80;47.40
76967;DHT22;65904;52.278;20.972;2023-06-26T12:41:24;36.10;47.10
76967;DHT22;65904;52.278;20.972;2023-06-26T12:44:17;36.40;47.30
76967;DHT22;65904;52.278;20.972;2023-06-26T12:47:03;36.50;46.50
76967;DHT22;65904;52.278;20.972;2023-06-26T12:49:51;37.50;45.40
76967;DHT22;65904;52.278;20.972;2023-06-26T12:52:38;37.50;44.30
76967;DHT22;65904;52.278;20.972;2023-06-26T12:55:26;38.10;43.70
76967;DHT22;65904;52.278;20.972;2023-06-26T12:58:12;38.60;43.00
76967;DHT22;65904;52.278;20.972;2023-06-26T13:00:58;38.50;41.90
76967;DHT22;65904;52.278;20.972;2023-06-26T13:03:44;36.40;43.30
76967;DHT22;65904;52.278;20.972;2023-06-26T13:06:31;36.10;44.20
76967;DHT22;65904;52.278;20.972;2023-06-26T13:09:17;36.70;43.30
76967;DHT22;65904;52.278;20.972;2023-06-26T13:12:06;37.30;43.30
76967;DHT22;65904;52.278;20.972;2023-06-26T13:14:52;37.30;42.50
76967;DHT22;65904;52.278;20.972;2023-06-26T13:17:39;36.90;43.30
76967;DHT22;65904;52.278;20.972;2023-06-26T13:20:25;36.60;42.90
76967;DHT22;65904;52.278;20.972;2023-06-26T13:23:13;37.50;42.20
76967;DHT22;65904;52.278;20.972;2023-06-26T13:25:59;38.80;41.10
76967;DHT22;65904;52.278;20.972;2023-06-26T13:28:46;40.00;40.30
76967;DHT22;65904;52.278;20.972;2023-06-26T13:31:32;40.10;38.50
76967;DHT22;65904;52.278;20.972;2023-06-26T13:34:22;37.20;39.80
76967;DHT22;65904;52.278;20.972;2023-06-26T13:37:09;36.30;41.60
76967;DHT22;65904;52.278;20.972;2023-06-26T13:39:55;36.60;41.70
76967;DHT22;65904;52.278;20.972;2023-06-26T13:42:43;36.80;41.80
76967;DHT22;65904;52.278;20.972;2023-06-26T13:45:31;36.50;41.70
76967;DHT22;65904;52.278;20.972;2023-06-26T13:48:17;36.00;42.10
76967;DHT22;65904;52.278;20.972;2023-06-26T13:51:03;35.60;42.50
76967;DHT22;65904;52.278;20.972;2023-06-26T13:53:50;37.80;41.80
76967;DHT22;65904;52.278;20.972;2023-06-26T13:56:36;38.40;41.00
76967;DHT22;65904;52.278;20.972;2023-06-26T13:59:22;38.40;40.20
76967;DHT22;65904;52.278;20.972;2023-06-26T14:02:11;38.90;39.20
76967;DHT22;65904;52.278;20.972;2023-06-26T14:04:57;37.40;39.50
76967;DHT22;65904;52.278;20.972;2023-06-26T14:07:45;35.80;41.80
76967;DHT22;65904;52.278;20.972;2023-06-26T14:10:31;36.30;42.00
76967;DHT22;65904;52.278;20.972;2023-06-26T14:13:18;37.30;40.80
76967;DHT22;65904;52.278;20.972;2023-06-26T14:16:05;37.20;40.00
76967;DHT22;65904;52.278;20.972;2023-06-26T14:18:53;37.30;40.00
76967;DHT22;65904;52.278;20.972;2023-06-26T14:21:39;37.60;39.20
76967;DHT22;65904;52.278;20.972;2023-06-26T14:24:25;37.90;39.20
76967;DHT22;65904;52.278;20.972;2023-06-26T14:27:11;37.10;40.20
76967;DHT22;65904;52.278;20.972;2023-06-26T14:29:58;39.20;39.60
76967;DHT22;65904;52.278;20.972;2023-06-26T14:32:46;40.60;38.40
76967;DHT22;65904;52.278;20.972;2023-06-26T14:35:33;41.10;37.50
76967;DHT22;65904;52.278;20.972;2023-06-26T14:38:20;42.20;36.60
76967;DHT22;65904;52.278;20.972;2023-06-26T14:41:06;41.80;36.10
76967;DHT22;65904;52.278;20.972;2023-06-26T14:43:52;39.40;37.00
76967;DHT22;65904;52.278;20.972;2023-06-26T14:46:39;39.10;38.60
76967;DHT22;65904;52.278;20.972;2023-06-26T14:49:25;38.50;38.10
76967;DHT22;65904;52.278;20.972;2023-06-26T14:52:13;38.20;39.00
76967;DHT22;65904;52.278;20.972;2023-06-26T14:54:59;38.50;38.10
76967;DHT22;65904;52.278;20.972;2023-06-26T14:57:45;39.00;37.90
76967;DHT22;65904;52.278;20.972;2023-06-26T15:00:32;39.40;37.50
76967;DHT22;65904;52.278;20.972;2023-06-26T15:03:18;39.90;36.50
76967;DHT22;65904;52.278;20.972;2023-06-26T15:06:03;39.60;36.40
76967;DHT22;65904;52.278;20.972;2023-06-26T15:08:51;38.60;37.10
76967;DHT22;65904;52.278;20.972;2023-06-26T15:11:37;37.20;38.30
76967;DHT22;65904;52.278;20.972;2023-06-26T15:14:23;36.10;39.70
76967;DHT22;65904;52.278;20.972;2023-06-26T15:17:09;35.10;41.00
76967;DHT22;65904;52.278;20.972;2023-06-26T15:19:55;34.40;41.70
76967;DHT22;65904;52.278;20.972;2023-06-26T15:22:41;33.70;42.40
76967;DHT22;65904;52.278;20.972;2023-06-26T15:25:29;33.20;43.40
76967;DHT22;65904;52.278;20.972;2023-06-26T15:28:16;33.10;44.00
76967;DHT22;65904;52.278;20.972;2023-06-26T15:31:02;33.90;43.40
76967;DHT22;65904;52.278;20.972;2023-06-26T15:33:48;33.80;43.80
76967;DHT22;65904;52.278;20.972;2023-06-26T15:36:35;33.30;44.00
76967;DHT22;65904;52.278;20.972;2023-06-26T15:39:21;32.80;44.70
76967;DHT22;65904;52.278;20.972;2023-06-26T15:42:09;32.30;45.30
76967;DHT22;65904;52.278;20.972;2023-06-26T15:44:55;32.10;45.60
76967;DHT22;65904;52.278;20.972;2023-06-26T15:47:42;31.70;46.50
76967;DHT22;65904;52.278;20.972;2023-06-26T15:50:28;31.40;46.80
76967;DHT22;65904;52.278;20.972;2023-06-26T15:53:16;31.20;46.70
76967;DHT22;65904;52.278;20.972;2023-06-26T15:56:05;31.50;47.20
76967;DHT22;65904;52.278;20.972;2023-06-26T15:58:53;32.40;46.30
76967;DHT22;65904;52.278;20.972;2023-06-26T16:01:39;34.10;44.50
76967;DHT22;65904;52.278;20.972;2023-06-26T16:04:26;33.60;44.10
76967;DHT22;65904;52.278;20.972;2023-06-26T16:07:15;33.10;45.60
76967;DHT22;65904;52.278;20.972;2023-06-26T16:10:02;32.70;45.00
76967;DHT22;65904;52.278;20.972;2023-06-26T16:12:48;31.90;46.30
76967;DHT22;65904;52.278;20.972;2023-06-26T16:15:35;31.50;48.00
76967;DHT22;65904;52.278;20.972;2023-06-26T16:18:22;31.30;48.60
76967;DHT22;65904;52.278;20.972;2023-06-26T16:21:08;30.90;48.80
76967;DHT22;65904;52.278;20.972;2023-06-26T16:23:54;30.90;49.10
76967;DHT22;65904;52.278;20.972;2023-06-26T16:26:40;30.50;50.10
76967;DHT22;65904;52.278;20.972;2023-06-26T16:29:26;30.40;49.20
76967;DHT22;65904;52.278;20.972;2023-06-26T16:32:14;30.10;50.70
76967;DHT22;65904;52.278;20.972;2023-06-26T16:35:00;29.90;51.00
76967;DHT22;65904;52.278;20.972;2023-06-26T16:37:47;29.90;51.30
76967;DHT22;65904;52.278;20.972;2023-06-26T16:40:33;30.10;52.00
76967;DHT22;65904;52.278;20.972;2023-06-26T16:43:19;30.60;52.20
76967;DHT22;65904;52.278;20.972;2023-06-26T16:46:05;30.90;51.10
76967;DHT22;65904;52.278;20.972;2023-06-26T16:48:53;30.70;51.20
76967;DHT22;65904;52.278;20.972;2023-06-26T16:51:41;31.00;51.80
76967;DHT22;65904;52.278;20.972;2023-06-26T16:54:27;31.00;50.10
76967;DHT22;65904;52.278;20.972;2023-06-26T16:57:14;30.80;49.80
76967;DHT22;65904;52.278;20.972;2023-06-26T17:00:00;30.60;51.10
76967;DHT22;65904;52.278;20.972;2023-06-26T17:02:49;30.40;50.20
76967;DHT22;65904;52.278;20.972;2023-06-26T17:05:37;30.20;49.40
76967;DHT22;65904;52.278;20.972;2023-06-26T17:08:23;30.00;49.10
76967;DHT22;65904;52.278;20.972;2023-06-26T17:11:10;29.70;49.80
76967;DHT22;65904;52.278;20.972;2023-06-26T17:13:56;29.50;49.40
76967;DHT22;65904;52.278;20.972;2023-06-26T17:16:43;29.40;50.10
76967;DHT22;65904;52.278;20.972;2023-06-26T17:19:29;29.40;50.20